• Join FlightAware (Why Join?)
  • Login
  • US Flag 
06:13AM EDT


 

Airport Tracker/Info


-or-


 

Live Flight TrackerFlight Track Log ✈ ASA525 ✈ 18-Jun-2013 ✈ KBUR - KSEA

Flight Track Log - Related Links

Times and Time Zones

All times are in EDT time to prevent confusion due to time zone crossing. See the ASA525 flight status page for this flight to view local times or setup timezone preferences in your user account.

Time Position Orientation Groundspeed Altitude Reporting Facility
EDT Latitude Longitude Course Direction KTS MPH feet Rate Location/Type
02:12PM 34.1833 -118.3667 211° Southwest 162 186 2,100  Level Southern California TRACON
02:13PM 34.1608 -118.3828 211° Southwest 173 199 2,700 1,620 Climbing Los Angeles Center
02:14PM 34.1378 -118.4339 241° Southwest 214 246 4,700 2,400 Climbing Los Angeles Center
02:15PM 34.2064 -118.4856 328° Northwest 251 289 7,700 2,700 Climbing Los Angeles Center
02:16PM 34.2764 -118.5197 338° Northwest 267 307 10,300 2,520 Climbing Los Angeles Center
02:17PM 34.3492 -118.5656 333° Northwest 288 331 13,000 2,640 Climbing Los Angeles Center
02:18PM 34.4250 -118.6153 332° Northwest 304 350 15,800 2,700 Climbing Los Angeles Center
02:19PM 34.5311 -118.6847 332° Northwest 358 412 18,700 2,700 Climbing Los Angeles Center
02:20PM 34.6244 -118.7442 332° Northwest 375 432 21,500 2,700 Climbing Los Angeles Center
02:21PM 34.7192 -118.8075 331° Northwest 385 443 24,300 2,340 Climbing Los Angeles Center
02:22PM 34.8206 -118.8711 333° Northwest 404 465 26,400 2,040 Climbing Los Angeles Center
02:23PM 34.9394 -118.9147 343° North 434 499 28,600 1,920 Climbing Los Angeles Center
02:24PM 35.0569 -118.9600 342° North 444 511 30,400 1,980 Climbing Los Angeles Center
02:25PM 35.2019 -119.0161 342° North 456 525 32,700 2,040 Climbing Los Angeles Center
02:26PM 35.3228 -119.0617 343° North 458 527 34,700 1,740 Climbing Los Angeles Center
02:27PM 35.4422 -119.1061 343° North 454 522 36,300 1,500 Climbing Los Angeles Center
02:28PM 35.5581 -119.1528 342° North 446 513 37,800 1,320 Climbing Los Angeles Center
02:30PM 35.6744 -119.1994 342° North 443 510 39,100 1,020 Climbing Los Angeles Center
02:31PM 35.8125 -119.2517 343° North 437 503 40,000 420 Climbing Los Angeles Center
02:32PM 35.9317 -119.2861 347° North 439 505 40,000  Level Los Angeles Center
02:32PM 36.0028 -119.3050 348° North 445 512 40,000  Level Oakland Center
02:33PM 36.1208 -119.3397 347° North 442 509 40,000  Level Oakland Center
02:34PM 36.2406 -119.3736 347° North 442 509 40,000  Level Oakland Center
02:35PM 36.3603 -119.4094 346° North 444 511 40,000  Level Oakland Center
02:36PM 36.4783 -119.4461 346° North 439 505 40,000  Level Oakland Center
02:37PM 36.5967 -119.4783 348° North 436 502 40,000  Level Oakland Center
02:38PM 36.7147 -119.5144 346° North 437 503 40,000  Level Oakland Center
02:39PM 36.8322 -119.5492 347° North 435 501 40,000  Level Oakland Center
02:40PM 36.9756 -119.5914 347° North 442 509 40,000  Level Oakland Center
02:41PM 37.0958 -119.6275 347° North 446 513 40,000  Level Oakland Center
02:42PM 37.2153 -119.6644 346° North 443 510 40,000  Level Oakland Center
02:43PM 37.3350 -119.7003 347° North 443 510 40,000  Level Oakland Center
02:44PM 37.4453 -119.7336 347° North 442 509 40,000  Level Oakland Center
02:45PM 37.5881 -119.7761 347° North 442 509 40,000  Level Oakland Center
02:46PM 37.7072 -119.8128 346° North 440 506 40,000  Level Oakland Center
02:47PM 37.8256 -119.8503 346° North 440 506 40,000  Level Oakland Center
02:48PM 37.9453 -119.8856 347° North 442 509 40,000  Level Oakland Center
02:50PM 38.0644 -119.9225 346° North 441 507 40,000  Level Oakland Center
02:51PM 38.1839 -119.9597 346° North 442 509 40,000  Level Oakland Center
02:52PM 38.3039 -119.9958 347° North 443 510 40,000  Level Oakland Center
02:53PM 38.4242 -120.0336 346° North 445 512 40,000  Level Oakland Center
02:54PM 38.5456 -120.0714 346° North 447 514 40,000  Level Oakland Center
02:55PM 38.6933 -120.1172 346° North 452 520 40,000  Level Oakland Center
02:56PM 38.8144 -120.1558 346° North 453 521 40,000  Level Oakland Center
02:57PM 38.9383 -120.1947 346° North 457 526 40,000  Level Oakland Center
02:58PM 39.0622 -120.2331 346° North 459 528 40,000  Level Oakland Center
02:59PM 39.1847 -120.2733 346° North 458 527 40,000  Level Oakland Center
03:00PM 39.3075 -120.3125 346° North 456 525 40,000  Level Oakland Center
03:01PM 39.4308 -120.3508 347° North 459 528 40,000  Level Oakland Center
03:02PM 39.5564 -120.3919 346° North 465 535 40,000  Level Oakland Center
03:03PM 39.6817 -120.4317 346° North 466 536 40,000  Level Oakland Center
03:04PM 39.8311 -120.4794 346° North 462 532 40,000  Level Oakland Center
03:05PM 39.9544 -120.5183 346° North 459 528 40,000  Level Oakland Center
03:06PM 40.0828 -120.5606 346° North 466 536 40,000  Level Oakland Center
03:07PM 40.2072 -120.6014 346° North 465 535 40,000  Level Oakland Center
03:08PM 40.3339 -120.6425 346° North 468 539 40,000  Level Oakland Center
03:09PM 40.4606 -120.6842 346° North 473 544 40,000  Level Oakland Center
03:10PM 40.5861 -120.7261 346° North 469 540 40,000  Level Oakland Center
03:11PM 40.7111 -120.7672 346° North 466 536 40,000  Level Oakland Center
03:12PM 40.8356 -120.8086 346° North 464 534 40,000  Level Oakland Center
03:13PM 40.9611 -120.8514 346° North 466 536 40,000  Level Oakland Center
03:14PM 41.1114 -120.9011 346° North 465 535 40,000  Level Oakland Center
03:15PM 41.2367 -120.9444 345° North 466 536 40,000  Level Oakland Center
03:16PM 41.3628 -120.9858 346° North 470 541 40,000  Level Oakland Center
03:17PM 41.4875 -121.0281 346° North 465 535 40,000  Level Oakland Center
03:18PM 41.6139 -121.0722 345° North 470 541 40,000  Level Oakland Center
03:19PM 41.7400 -121.1164 345° North 470 541 40,000  Level Oakland Center
03:20PM 41.8669 -121.1611 345° North 474 545 40,000  Level Oakland Center
03:21PM 41.9928 -121.2044 346° North 473 544 40,000  Level Oakland Center
03:22PM 42.1686 -121.2656 346° North 475 547 40,000 -60 Level Seattle Center
03:23PM 42.2711 -121.3006 346° North 473 544 39,900 -60 Descending Seattle Center
03:24PM 42.4228 -121.3533 346° North 469 540 39,900  Level Seattle Center
03:25PM 42.5483 -121.3953 346° North 466 536 40,000  Climbing Seattle Center
03:26PM 42.6739 -121.4403 345° North 469 540 39,900  Descending Seattle Center
03:27PM 42.7875 -121.4822 345° North 466 536 40,000  Climbing Seattle Center
03:28PM 42.9119 -121.5272 345° North 466 536 40,000  Level Seattle Center
03:29PM 43.0497 -121.5767 345° North 473 544 40,000 -60 Level Seattle Center
03:31PM 43.1747 -121.6214 345° North 469 540 39,900  Descending Seattle Center
03:32PM 43.3044 -121.6714 344° North 467 537 40,000  Climbing Seattle Center
03:33PM 43.4317 -121.7150 346° North 471 542 40,000  Level Seattle Center
03:34PM 43.5589 -121.7619 345° North 471 542 40,000  Level Seattle Center
03:35PM 43.6867 -121.8092 345° North 474 545 40,000  Level Seattle Center
03:36PM 43.8139 -121.8553 345° North 471 542 40,000  Level Seattle Center
03:37PM 43.9483 -121.9031 346° North 474 545 40,000  Level Seattle Center
03:38PM 44.0742 -121.9503 345° North 471 542 40,000  Level Seattle Center
03:39PM 44.2003 -121.9964 345° North 470 541 40,000  Level Seattle Center
03:40PM 44.3239 -122.0439 345° North 465 535 40,000  Level Seattle Center
03:41PM 44.4750 -122.0992 345° North 468 539 40,000  Level Seattle Center
03:42PM 44.5986 -122.1467 345° North 464 534 40,000  Level Seattle Center
03:43PM 44.7233 -122.1950 345° North 466 536 40,000  Level Seattle Center
03:44PM 44.8478 -122.2425 345° North 465 535 40,000  Level Seattle Center
03:45PM 44.9792 -122.2933 345° North 464 534 40,000  Level Seattle Center
03:46PM 45.1047 -122.3403 345° North 471 542 40,000  Level Seattle Center
03:47PM 45.2294 -122.3886 345° North 469 540 40,000 -60 Level Seattle Center
03:48PM 45.3531 -122.4372 345° North 464 534 39,900 -60 Descending Seattle Center
03:49PM 45.4767 -122.4853 345° North 464 534 39,900  Level Seattle Center
03:50PM 45.6019 -122.5336 345° North 467 537 40,000 -420 Climbing Seattle Center
03:51PM 45.7272 -122.5828 345° North 470 541 39,100 -1,680 Descending Seattle Center
03:52PM 45.8558 -122.6183 349° North 472 543 36,700 -2,640 Descending Seattle Center
03:53PM 45.9875 -122.6506 350° North 479 551 33,800 -3,240 Descending Seattle Center
03:54PM 46.1492 -122.6892 351° North 493 567 30,200 -2,940 Descending Seattle Center
03:55PM 46.2794 -122.7147 352° North 489 563 27,900 -2,040 Descending Seattle Center
03:56PM 46.4111 -122.7214 358° North 482 555 26,100 -1,800 Descending Seattle Center
03:57PM 46.5325 -122.7144 North 450 518 24,300 -2,100 Descending Seattle Center
03:58PM 46.6064 -122.7114 North 421 484 22,900 -2,280 Descending Seattle Center
03:58PM 46.7078 -122.7089 North 394 453 21,000 -1,920 Descending Seattle Center
03:59PM 46.7553 -122.7072 North 391 450 20,100 -1,860 Descending Seattle Center
04:00PM 46.8669 -122.6436 21° North 366 421 18,000 -2,460 Descending Seattle Center
04:01PM 46.9478 -122.5575 36° Northeast 364 419 15,100 -2,520 Descending Seattle Center
04:02PM 47.0408 -122.5167 17° North 350 403 12,900 -1,860 Descending Seattle Center
04:03PM 47.1383 -122.4892 11° North 329 379 11,400 -1,380 Descending Seattle Center
04:04PM 47.2253 -122.4744 North 314 361 10,100 -1,080 Descending Seattle Center
04:05PM 47.3053 -122.4619 North 285 328 9,300 -1,080 Descending Seattle Center
04:06PM 47.3800 -122.4547 North 272 313 8,000 -1,140 Descending Seattle Center
04:07PM 47.4539 -122.4553 360° North 264 304 7,000 -960 Descending Seattle Center
04:08PM 47.5217 -122.4550 360° North 244 281 6,100 -1,080 Descending Seattle Center
04:09PM 47.5933 -122.4556 360° North 239 275 4,900 -1,080 Descending Seattle Center
04:10PM 47.6203 -122.3889 59° Northeast 214 246 4,000 -840 Descending Seattle Center
04:11PM 47.5892 -122.3319 129° Southeast 180 207 3,200 -780 Descending Seattle Center
04:12PM 47.5442 -122.3169 167° South 166 191 2,500 -960 Descending Seattle Center
04:13PM 47.4994 -122.3172 180° South 162 186 1,300 -1,080 Descending Seattle Center
04:14PM 47.4617 -122.3178 181° South 139 160 400 -480 Descending Seattle Center
04:15PM 47.4278 -122.3194 182° South 137 158 400  Level Seattle Center
04:17PM 47.4499 -122.3118 176° South  Level Estimated